Time;durP1;ratioP1;P1;durP2;ratioP2;P2;SDS_P1;SDS_P2;PMS_P1;PMS_P2;Temp;Humidity;BMP_temperature;BMP_pressure;BME280_temperature;BME280_humidity;BME280_pressure;Samples;Min_cycle;Max_cycle;Signal;HPM_P1;HPM_P2
2022/02/11 00:08:28;;;;;;;26.70;12.80;;;6.20;99.90;;;;;;5036754;28;20542;-74
2022/02/11 00:11:15;;;;;;;30.83;14.20;;;6.20;99.90;;;;;;5041890;28;20226;-74
2022/02/11 00:14:05;;;;;;;27.10;14.70;;;6.10;99.90;;;;;;5036236;28;20215;-74
2022/02/11 00:16:53;;;;;;;28.23;14.53;;;6.10;99.90;;;;;;5038996;28;20260;-73
2022/02/11 00:19:40;;;;;;;28.87;14.43;;;6.20;99.90;;;;;;5036635;28;20206;-73
2022/02/11 00:22:28;;;;;;;27.63;15.33;;;6.10;99.90;;;;;;5039147;28;20222;-75
2022/02/11 00:25:16;;;;;;;29.70;14.77;;;6.20;99.90;;;;;;5046548;28;20208;-74
2022/02/11 00:34:17;;;;;;;30.97;15.10;;;6.10;99.90;;;;;;5038994;28;20202;-74
2022/02/11 00:37:09;;;;;;;32.63;15.40;;;6.10;99.90;;;;;;5042112;28;20215;-75
2022/02/11 00:40:14;;;;;;;35.03;15.67;;;6.10;99.90;;;;;;5048374;28;20189;-75
2022/02/11 00:43:57;;;;;;;25.20;13.93;;;6.10;99.90;;;;;;5038416;28;20207;-75
2022/02/11 01:02:20;;;;;;;27.00;12.90;;;5.90;99.90;;;;;;5059177;28;20545;-74
2022/02/11 01:05:08;;;;;;;33.40;13.53;;;5.90;99.90;;;;;;5059079;28;20654;-75
2022/02/11 01:07:55;;;;;;;31.30;13.57;;;5.90;99.90;;;;;;5058716;28;20221;-75
2022/02/11 01:10:44;;;;;;;33.53;14.07;;;5.90;99.90;;;;;;5061961;28;20672;-75
2022/02/11 01:13:31;;;;;;;28.07;13.63;;;5.80;99.90;;;;;;5058465;28;20210;-75
2022/02/11 01:16:24;;;;;;;29.53;13.80;;;5.80;99.90;;;;;;5057132;28;20208;-75
2022/02/11 01:19:21;;;;;;;32.23;13.27;;;5.80;99.90;;;;;;5060951;28;20212;-75
2022/02/11 01:22:17;;;;;;;29.13;14.00;;;5.80;99.90;;;;;;5059451;28;20625;-75
2022/02/11 01:25:30;;;;;;;32.27;14.43;;;5.80;99.90;;;;;;5059265;28;20286;-75
2022/02/11 01:28:33;;;;;;;31.93;14.97;;;5.70;99.90;;;;;;5062042;28;20309;-75
2022/02/11 01:31:34;;;;;;;30.40;13.73;;;5.70;99.90;;;;;;5059715;28;20209;-75
2022/02/11 01:34:45;;;;;;;29.50;13.13;;;5.80;99.90;;;;;;5059977;28;20206;-74
2022/02/11 01:37:39;;;;;;;29.77;13.63;;;5.80;99.90;;;;;;5062436;28;20195;-75
2022/02/11 01:53:07;;;;;;;28.33;13.27;;;5.80;99.90;;;;;;5060437;28;20202;-75
2022/02/11 01:56:13;;;;;;;32.00;14.13;;;5.80;99.90;;;;;;5058452;28;20202;-74
2022/02/11 02:02:50;;;;;;;29.23;13.87;;;5.70;99.90;;;;;;5061644;28;20207;-75
2022/02/11 02:09:01;;;;;;;26.03;14.13;;;5.70;99.90;;;;;;5070977;28;20207;-75
2022/02/11 02:12:18;;;;;;;29.83;14.37;;;5.80;99.90;;;;;;5081141;28;20197;-74
2022/02/11 02:21:52;;;;;;;26.50;13.77;;;5.80;99.90;;;;;;5039550;28;20206;-75
2022/02/11 02:24:56;;;;;;;28.87;13.20;;;5.70;99.90;;;;;;5036732;28;20202;-75
2022/02/11 02:28:00;;;;;;;24.43;12.87;;;5.80;99.90;;;;;;5038996;28;20225;-75
2022/02/11 02:34:19;;;;;;;25.63;12.30;;;5.80;99.90;;;;;;5040038;28;20286;-75
2022/02/11 02:37:22;;;;;;;24.90;12.27;;;5.80;99.90;;;;;;5039201;28;20238;-75
2022/02/11 02:59:33;;;;;;;21.67;11.50;;;5.70;99.90;;;;;;4909090;29;20216;-76
2022/02/11 03:49:14;;;;;;;39.63;15.63;;;5.60;99.90;;;;;;5005742;28;20289;-76
2022/02/11 03:52:21;;;;;;;26.47;14.47;;;5.60;99.90;;;;;;5037497;28;20199;-76
2022/02/11 03:55:47;;;;;;;34.63;15.10;;;5.60;99.90;;;;;;5038228;28;20249;-76
2022/02/11 03:59:11;;;;;;;33.17;15.90;;;5.60;99.90;;;;;;5036564;28;20211;-76
2022/02/11 04:21:19;;;;;;;27.30;13.93;;;5.50;99.90;;;;;;4995699;28;20306;-76
2022/02/11 04:55:04;;;;;;;30.33;15.57;;;5.50;99.90;;;;;;4920221;29;20237;-75
2022/02/11 05:00:58;;;;;;;30.53;15.77;;;5.50;99.90;;;;;;4920582;29;20384;-76
2022/02/11 05:03:45;;;;;;;29.97;16.27;;;5.50;99.90;;;;;;4933881;28;20764;-75
2022/02/11 05:06:33;;;;;;;26.40;14.00;;;5.40;99.90;;;;;;4963605;28;20216;-75
2022/02/11 05:09:20;;;;;;;31.90;15.87;;;5.40;99.90;;;;;;4975272;28;20330;-75
2022/02/11 05:12:08;;;;;;;28.17;15.63;;;5.50;99.90;;;;;;5041589;28;20279;-76
2022/02/11 05:14:56;;;;;;;27.73;14.47;;;5.40;99.90;;;;;;5039644;28;20229;-75
2022/02/11 05:17:50;;;;;;;30.67;16.33;;;5.40;99.90;;;;;;5040233;28;20210;-75
2022/02/11 05:20:39;;;;;;;28.90;14.93;;;5.40;99.90;;;;;;5039040;28;20202;-76
2022/02/11 05:23:26;;;;;;;26.60;15.17;;;5.40;99.90;;;;;;5040889;28;20287;-76
2022/02/11 05:26:14;;;;;;;31.77;15.47;;;5.30;99.90;;;;;;5043036;28;20298;-75
2022/02/11 05:29:01;;;;;;;30.10;15.60;;;5.30;99.90;;;;;;5042604;28;20211;-76
2022/02/11 05:31:50;;;;;;;28.00;15.33;;;5.30;99.90;;;;;;5041673;28;20205;-76
2022/02/11 05:34:39;;;;;;;29.20;15.77;;;5.30;99.90;;;;;;5044165;28;20206;-76
2022/02/11 05:37:26;;;;;;;27.33;15.73;;;5.30;99.90;;;;;;5043064;28;20200;-75
2022/02/11 05:40:14;;;;;;;26.80;15.87;;;5.30;99.90;;;;;;5043037;28;20209;-76
2022/02/11 05:43:01;;;;;;;28.97;15.70;;;5.30;99.90;;;;;;5042623;28;20326;-76
2022/02/11 05:45:49;;;;;;;27.93;14.83;;;5.40;99.90;;;;;;5043628;28;20211;-76
2022/02/11 05:48:39;;;;;;;27.00;14.77;;;5.30;99.90;;;;;;5056741;28;20707;-76
2022/02/11 05:51:28;;;;;;;33.07;15.67;;;5.30;99.90;;;;;;5061066;28;20212;-75
2022/02/11 05:54:15;;;;;;;43.50;20.80;;;5.30;99.90;;;;;;5060681;28;20197;-75
2022/02/11 05:57:03;;;;;;;39.63;19.93;;;5.20;99.90;;;;;;5061010;28;20216;-75
2022/02/11 05:59:51;;;;;;;35.00;17.13;;;5.30;99.90;;;;;;5058394;28;20202;-74
2022/02/11 06:02:39;;;;;;;34.43;15.57;;;5.30;99.90;;;;;;5056364;28;20197;-75
2022/02/11 06:05:26;;;;;;;30.70;15.37;;;5.20;99.90;;;;;;5059621;28;20667;-75
2022/02/11 06:08:15;;;;;;;32.13;16.67;;;5.20;99.90;;;;;;5060087;28;20222;-74
2022/02/11 06:11:03;;;;;;;59.33;26.63;;;5.20;99.90;;;;;;5060871;28;20577;-75
2022/02/11 06:13:50;;;;;;;69.20;26.63;;;5.20;99.90;;;;;;5058487;28;20252;-74
2022/02/11 06:16:38;;;;;;;30.50;15.23;;;5.20;99.90;;;;;;5066633;28;20204;-74
2022/02/11 06:19:25;;;;;;;27.40;15.27;;;5.20;99.90;;;;;;5057003;28;20576;-74
2022/02/11 06:22:13;;;;;;;30.53;15.63;;;5.10;99.90;;;;;;5049926;28;20734;-74
2022/02/11 06:25:02;;;;;;;30.63;16.57;;;5.00;99.90;;;;;;5065465;28;20200;-75
2022/02/11 06:27:50;;;;;;;32.77;17.87;;;5.00;99.90;;;;;;5056216;28;20223;-75
2022/02/11 06:31:29;;;;;;;41.00;19.57;;;5.00;99.90;;;;;;5062113;28;20211;-74
2022/02/11 06:34:17;;;;;;;47.63;20.70;;;5.00;99.90;;;;;;4999827;28;20204;-74
2022/02/11 06:37:05;;;;;;;36.37;16.53;;;5.00;99.90;;;;;;4998776;28;20667;-74
2022/02/11 06:39:52;;;;;;;32.73;16.20;;;4.90;99.90;;;;;;5004071;28;20200;-74
2022/02/11 06:42:41;;;;;;;65.57;25.60;;;4.90;99.90;;;;;;4993084;28;20203;-74
2022/02/11 06:45:29;;;;;;;91.57;33.07;;;4.90;99.90;;;;;;4998823;28;20245;-75
2022/02/11 06:48:21;;;;;;;72.53;29.03;;;4.90;99.90;;;;;;5000262;28;20226;-75
2022/02/11 06:51:08;;;;;;;61.50;25.90;;;4.90;99.90;;;;;;5000726;28;20202;-74
2022/02/11 06:53:56;;;;;;;127.23;33.57;;;4.90;99.90;;;;;;5006391;28;20650;-74
2022/02/11 06:56:43;;;;;;;212.10;45.17;;;4.90;99.90;;;;;;5006456;28;20663;-74
2022/02/11 06:59:32;;;;;;;288.97;66.60;;;4.90;99.90;;;;;;4998419;28;20737;-75
2022/02/11 07:02:20;;;;;;;356.47;87.10;;;4.90;99.90;;;;;;5007115;28;20678;-75
2022/02/11 07:05:08;;;;;;;124.57;33.00;;;4.90;99.90;;;;;;5003315;28;20206;-75
2022/02/11 07:07:56;;;;;;;151.40;43.50;;;4.90;99.90;;;;;;5006891;28;20273;-74
2022/02/11 07:10:43;;;;;;;200.70;46.50;;;4.80;99.90;;;;;;5031432;28;20225;-74
2022/02/11 07:13:31;;;;;;;153.80;38.43;;;4.80;99.90;;;;;;5080557;28;20565;-75
2022/02/11 07:16:20;;;;;;;114.33;35.70;;;4.80;99.90;;;;;;5084572;28;20199;-73
2022/02/11 07:19:07;;;;;;;95.40;35.83;;;4.90;99.90;;;;;;5080059;28;20201;-74
2022/02/11 07:21:55;;;;;;;115.63;31.07;;;4.90;99.90;;;;;;5089098;28;20204;-76
2022/02/11 07:24:43;;;;;;;99.33;32.63;;;4.90;99.90;;;;;;5086238;28;20213;-74
2022/02/11 07:27:31;;;;;;;93.87;30.33;;;4.90;99.90;;;;;;5086365;28;20200;-74
2022/02/11 07:30:20;;;;;;;66.37;27.03;;;4.90;99.90;;;;;;5086574;28;20200;-74
2022/02/11 07:33:09;;;;;;;76.23;35.63;;;5.00;99.90;;;;;;5077600;28;20196;-74
2022/02/11 07:35:57;;;;;;;85.50;37.13;;;5.00;99.90;;;;;;5079184;28;20202;-74
2022/02/11 07:38:44;;;;;;;136.87;46.17;;;5.00;99.90;;;;;;5082522;28;20201;-74
2022/02/11 07:41:32;;;;;;;109.40;41.73;;;5.00;99.90;;;;;;5083087;28;20212;-74
2022/02/11 07:44:20;;;;;;;143.30;51.27;;;5.10;99.90;;;;;;5081293;28;20230;-74
2022/02/11 07:47:07;;;;;;;205.53;66.80;;;5.10;99.90;;;;;;5084412;28;20233;-74
2022/02/11 07:49:57;;;;;;;125.87;38.37;;;5.20;99.90;;;;;;5075755;28;20196;-73
2022/02/11 07:52:44;;;;;;;181.87;53.13;;;5.20;99.90;;;;;;5076238;28;20225;-74
2022/02/11 07:55:32;;;;;;;199.47;67.53;;;5.20;99.90;;;;;;5083897;28;20628;-75
2022/02/11 07:58:23;;;;;;;132.47;43.97;;;5.20;99.90;;;;;;5086868;28;20187;-73
2022/02/11 08:01:13;;;;;;;146.23;45.93;;;5.20;99.90;;;;;;5082588;28;20665;-74
2022/02/11 08:04:00;;;;;;;132.63;46.37;;;5.20;99.90;;;;;;5083148;28;20677;-74
2022/02/11 08:06:49;;;;;;;98.90;42.33;;;5.20;99.90;;;;;;5087847;28;20208;-75
2022/02/11 08:09:37;;;;;;;89.97;36.97;;;5.10;99.90;;;;;;5078158;28;20759;-74
2022/02/11 08:12:24;;;;;;;68.67;31.37;;;5.10;99.90;;;;;;5078832;28;20651;-74
2022/02/11 08:15:12;;;;;;;55.40;26.93;;;5.10;99.90;;;;;;5084692;28;20204;-74
2022/02/11 08:18:00;;;;;;;56.63;28.10;;;5.10;99.90;;;;;;5083601;28;20189;-74
2022/02/11 08:20:47;;;;;;;58.60;30.17;;;5.10;99.90;;;;;;5075236;28;20205;-73
2022/02/11 08:23:37;;;;;;;63.73;31.17;;;5.20;99.90;;;;;;5080027;28;20680;-75
2022/02/11 08:26:24;;;;;;;61.10;29.60;;;5.20;99.90;;;;;;5079707;28;20200;-75
2022/02/11 08:29:13;;;;;;;60.83;29.03;;;5.20;99.90;;;;;;5073471;28;20226;-75
2022/02/11 08:32:00;;;;;;;58.50;28.80;;;5.30;99.90;;;;;;5083999;28;20637;-72
2022/02/11 08:34:48;;;;;;;59.40;29.10;;;5.30;99.90;;;;;;5080001;28;20308;-74
2022/02/11 08:37:36;;;;;;;54.90;28.47;;;5.30;99.90;;;;;;5077233;28;20193;-73
2022/02/11 08:40:25;;;;;;;55.37;27.80;;;5.40;99.90;;;;;;5079340;28;20211;-74
2022/02/11 08:43:12;;;;;;;54.33;26.97;;;5.40;99.90;;;;;;5081620;28;20297;-74
2022/02/11 08:46:00;;;;;;;59.73;27.67;;;5.40;99.90;;;;;;5077360;28;20247;-73
2022/02/11 08:48:48;;;;;;;56.77;28.27;;;5.40;99.90;;;;;;5079395;28;20265;-73
2022/02/11 08:51:36;;;;;;;53.97;27.60;;;5.40;99.90;;;;;;5080381;28;20200;-74
2022/02/11 08:54:23;;;;;;;58.80;27.80;;;5.50;99.90;;;;;;5079361;28;20244;-74
2022/02/11 08:57:13;;;;;;;55.43;28.33;;;5.50;99.90;;;;;;5078172;28;20212;-74
2022/02/11 09:00:00;;;;;;;60.60;28.10;;;5.50;99.90;;;;;;5079830;28;20763;-74
2022/02/11 09:02:48;;;;;;;56.03;27.87;;;5.60;99.90;;;;;;5079109;28;20207;-74
2022/02/11 09:05:36;;;;;;;52.17;25.30;;;5.60;99.90;;;;;;5077403;28;20213;-74
2022/02/11 09:08:24;;;;;;;57.83;26.47;;;5.50;99.90;;;;;;5084840;28;20294;-75
2022/02/11 09:11:16;;;;;;;51.17;26.03;;;5.50;99.90;;;;;;5096992;28;20267;-74
2022/02/11 09:14:05;;;;;;;47.33;23.60;;;5.50;99.90;;;;;;5093865;28;20212;-75
2022/02/11 09:16:53;;;;;;;52.80;25.03;;;5.60;99.90;;;;;;5097962;28;20276;-75
2022/02/11 09:19:41;;;;;;;56.53;26.87;;;5.60;99.90;;;;;;5094857;28;20193;-75
2022/02/11 09:22:30;;;;;;;49.97;25.27;;;5.70;99.90;;;;;;5087490;28;20640;-75
2022/02/11 09:25:17;;;;;;;56.63;25.07;;;5.70;99.90;;;;;;5091490;28;20592;-75
2022/02/11 09:28:05;;;;;;;49.93;23.73;;;5.80;99.90;;;;;;5099575;28;20660;-76
2022/02/11 09:30:54;;;;;;;54.13;24.70;;;5.80;99.90;;;;;;5102286;28;20199;-76
2022/02/11 09:33:42;;;;;;;51.70;25.07;;;5.90;99.90;;;;;;5103882;28;20199;-76
2022/02/11 09:36:30;;;;;;;55.10;26.00;;;5.90;99.90;;;;;;5098688;28;20201;-75
2022/02/11 09:39:17;;;;;;;52.67;24.43;;;6.00;99.90;;;;;;5070245;28;20209;-76
2022/02/11 09:42:05;;;;;;;54.40;27.10;;;6.00;99.90;;;;;;5090134;28;20289;-73
2022/02/11 09:44:53;;;;;;;59.00;27.40;;;6.00;99.90;;;;;;5103414;28;20208;-75
2022/02/11 09:47:42;;;;;;;56.17;26.57;;;6.00;99.90;;;;;;5089501;28;20257;-75
2022/02/11 09:50:31;;;;;;;55.40;27.13;;;6.10;99.90;;;;;;5086650;28;20211;-76
2022/02/11 09:53:19;;;;;;;54.87;26.80;;;6.10;99.90;;;;;;5079235;28;20282;-75
2022/02/11 09:56:07;;;;;;;56.70;27.57;;;6.10;99.90;;;;;;5088992;28;20199;-76
2022/02/11 09:58:54;;;;;;;60.23;26.27;;;6.20;99.90;;;;;;5089842;28;20201;-76
2022/02/11 10:01:42;;;;;;;58.43;28.03;;;6.20;99.90;;;;;;5089634;28;20281;-76
2022/02/11 10:04:31;;;;;;;55.17;27.27;;;6.20;99.90;;;;;;5089681;28;20676;-75
2022/02/11 10:07:19;;;;;;;52.07;25.27;;;6.20;99.90;;;;;;5089135;28;20205;-75
2022/02/11 10:10:07;;;;;;;51.23;23.97;;;6.30;99.90;;;;;;5089326;28;20308;-75
2022/02/11 10:12:56;;;;;;;47.03;24.10;;;6.30;99.90;;;;;;5089629;28;20209;-75
2022/02/11 10:15:45;;;;;;;59.23;27.77;;;6.20;99.90;;;;;;5088969;28;20233;-75
2022/02/11 10:18:33;;;;;;;56.07;27.50;;;6.30;99.90;;;;;;5088956;28;20579;-75
2022/02/11 10:21:23;;;;;;;59.30;29.00;;;6.30;99.90;;;;;;5088937;28;20347;-75
2022/02/11 10:24:10;;;;;;;56.93;26.10;;;6.30;99.90;;;;;;5088741;28;20628;-75
2022/02/11 10:26:58;;;;;;;45.90;21.57;;;6.20;99.90;;;;;;5089645;28;20281;-74
2022/02/11 10:29:46;;;;;;;55.43;23.33;;;6.20;99.90;;;;;;5092820;28;20266;-75
2022/02/11 10:32:41;;;;;;;45.00;21.93;;;6.30;99.90;;;;;;5093112;28;20208;-74
2022/02/11 10:35:29;;;;;;;43.23;20.03;;;6.30;99.90;;;;;;5093584;28;20193;-75
2022/02/11 10:38:18;;;;;;;44.87;20.90;;;6.30;99.90;;;;;;5092696;28;20207;-75
2022/02/11 10:41:05;;;;;;;43.80;19.07;;;6.30;99.90;;;;;;5093745;28;20212;-75
2022/02/11 10:43:59;;;;;;;43.40;19.13;;;6.30;99.90;;;;;;5093192;28;20204;-75
2022/02/11 10:46:47;;;;;;;45.63;19.10;;;6.30;99.90;;;;;;5092400;28;20233;-75
2022/02/11 10:49:35;;;;;;;37.33;18.07;;;6.30;99.90;;;;;;5092872;28;20210;-74
2022/02/11 10:52:24;;;;;;;28.97;13.50;;;6.40;99.90;;;;;;5092462;28;20287;-75
2022/02/11 10:55:13;;;;;;;25.27;12.47;;;6.40;99.90;;;;;;5093060;28;20197;-75
2022/02/11 10:58:01;;;;;;;25.57;12.30;;;6.50;99.90;;;;;;5092933;28;20202;-75
2022/02/11 11:00:48;;;;;;;19.43;9.40;;;6.50;99.90;;;;;;5092782;28;20196;-74
2022/02/11 11:03:36;;;;;;;15.23;7.17;;;6.60;99.90;;;;;;5092884;28;20269;-74
2022/02/11 11:06:24;;;;;;;13.50;6.53;;;6.60;99.90;;;;;;5092745;28;20200;-74
2022/02/11 11:09:11;;;;;;;17.00;5.90;;;6.70;99.90;;;;;;5092631;28;20224;-74
2022/02/11 11:12:00;;;;;;;11.13;6.43;;;6.80;99.90;;;;;;5093479;28;20204;-75
2022/02/11 11:14:48;;;;;;;13.63;6.03;;;6.80;99.90;;;;;;5092548;28;20691;-75
2022/02/11 11:17:37;;;;;;;14.80;6.60;;;6.90;98.70;;;;;;5092030;28;20204;-74
2022/02/11 11:20:26;;;;;;;14.20;6.20;;;6.90;99.90;;;;;;5091991;28;20244;-73
2022/02/11 11:23:19;;;;;;;14.23;6.23;;;7.00;98.90;;;;;;5092000;28;20233;-75
2022/02/11 11:26:09;;;;;;;16.33;6.90;;;7.10;97.60;;;;;;5091483;28;20226;-74
2022/02/11 11:29:03;;;;;;;12.87;5.23;;;7.10;96.70;;;;;;5092889;28;20229;-74
2022/02/11 11:31:56;;;;;;;10.60;5.97;;;7.20;95.60;;;;;;5092253;28;20205;-74
2022/02/11 11:34:43;;;;;;;11.60;5.90;;;7.20;94.80;;;;;;5091842;28;20253;-74
2022/02/11 11:37:31;;;;;;;12.93;6.23;;;7.30;95.00;;;;;;5092374;28;20213;-74
2022/02/11 11:40:26;;;;;;;11.67;6.17;;;7.20;94.50;;;;;;5090840;28;20202;-75
2022/02/11 11:43:14;;;;;;;9.07;5.40;;;7.30;93.90;;;;;;5091882;28;20197;-74
2022/02/11 11:46:23;;;;;;;11.93;5.73;;;7.40;92.60;;;;;;5091249;28;20702;-75
2022/02/11 11:49:11;;;;;;;11.60;5.70;;;7.30;93.40;;;;;;5091779;28;20303;-75
2022/02/11 11:52:06;;;;;;;13.87;6.00;;;7.20;92.80;;;;;;5092060;28;20667;-75
2022/02/11 11:55:15;;;;;;;9.70;4.53;;;7.10;94.00;;;;;;5091237;28;20228;-75
2022/02/11 11:58:02;;;;;;;9.93;5.13;;;7.10;92.80;;;;;;5090895;28;20200;-74
2022/02/11 12:00:50;;;;;;;7.33;4.60;;;7.10;93.40;;;;;;5091219;28;20202;-74
2022/02/11 12:03:40;;;;;;;8.80;4.47;;;7.10;92.00;;;;;;5091544;28;20694;-74
2022/02/11 12:06:28;;;;;;;8.37;5.00;;;7.10;91.90;;;;;;5091553;28;20311;-74
2022/02/11 12:09:15;;;;;;;8.67;3.53;;;7.10;92.30;;;;;;5090740;28;20217;-74
2022/02/11 12:12:04;;;;;;;13.63;5.27;;;7.10;91.90;;;;;;5091356;28;20206;-74
2022/02/11 12:14:53;;;;;;;8.80;3.83;;;7.10;92.20;;;;;;5090942;28;20282;-74
2022/02/11 12:17:41;;;;;;;5.57;3.13;;;7.00;91.60;;;;;;5090671;28;20693;-74
2022/02/11 12:20:30;;;;;;;9.00;4.77;;;7.00;91.90;;;;;;5091454;28;20205;-74
2022/02/11 12:29:25;;;;;;;6.00;3.47;;;7.10;91.00;;;;;;5028186;28;20706;-74
2022/02/11 12:32:13;;;;;;;8.80;3.63;;;7.10;91.40;;;;;;5027240;28;20202;-74
2022/02/11 12:35:01;;;;;;;9.80;4.73;;;7.00;92.00;;;;;;5028144;28;20246;-74
2022/02/11 12:37:50;;;;;;;9.50;4.77;;;7.00;93.00;;;;;;5028384;28;20219;-73
2022/02/11 12:40:41;;;;;;;13.60;5.87;;;6.80;96.60;;;;;;5027194;28;20198;-75
2022/02/11 12:43:29;;;;;;;11.40;5.10;;;6.50;99.90;;;;;;5027148;28;20206;-75
2022/02/11 12:46:17;;;;;;;8.53;4.37;;;6.30;99.90;;;;;;5026877;28;20384;-75
2022/02/11 12:49:05;;;;;;;10.87;6.07;;;6.20;99.90;;;;;;5028685;28;20206;-76
2022/02/11 12:51:54;;;;;;;10.80;5.70;;;6.10;99.90;;;;;;5026334;28;20201;-76
2022/02/11 12:55:02;;;;;;;10.57;5.50;;;6.00;99.90;;;;;;5027081;28;20207;-75
2022/02/11 12:57:51;;;;;;;7.43;4.47;;;5.90;99.90;;;;;;5027031;28;20202;-75
2022/02/11 13:00:39;;;;;;;9.90;5.10;;;5.90;99.90;;;;;;5028897;28;20199;-76
2022/02/11 13:03:27;;;;;;;10.17;4.70;;;5.70;99.90;;;;;;5061023;28;20742;-76
2022/02/11 13:06:19;;;;;;;13.70;6.53;;;5.70;99.90;;;;;;5090262;28;20196;-76
2022/02/11 13:09:07;;;;;;;8.87;5.07;;;5.60;99.90;;;;;;5090526;28;20202;-75
2022/02/11 13:11:56;;;;;;;10.03;5.80;;;5.50;99.90;;;;;;5089835;28;20199;-77
2022/02/11 13:14:44;;;;;;;13.87;6.90;;;5.40;99.90;;;;;;5090408;28;20208;-76
2022/02/11 13:17:31;;;;;;;11.47;6.83;;;5.30;99.90;;;;;;5089616;28;20203;-76
2022/02/11 13:20:20;;;;;;;19.00;7.67;;;5.20;99.90;;;;;;5090205;28;20215;-75
2022/02/11 13:23:08;;;;;;;13.47;7.03;;;5.00;99.90;;;;;;5090387;28;20272;-76
2022/02/11 13:25:57;;;;;;;14.27;7.03;;;4.90;99.90;;;;;;5089553;28;20199;-76
2022/02/11 13:28:46;;;;;;;12.10;6.20;;;4.80;99.90;;;;;;5089484;28;20572;-76
2022/02/11 13:31:46;;;;;;;16.77;6.27;;;4.80;99.90;;;;;;5090108;28;20240;-75
2022/02/11 13:34:34;;;;;;;15.50;5.70;;;4.70;99.90;;;;;;5089373;28;20207;-75
2022/02/11 13:37:21;;;;;;;12.57;6.73;;;4.60;99.90;;;;;;5089491;28;20210;-76
2022/02/11 13:40:17;;;;;;;15.70;8.63;;;4.60;99.90;;;;;;5089178;28;20575;-75
2022/02/11 13:43:05;;;;;;;13.13;6.70;;;4.50;99.90;;;;;;5090087;28;20204;-75
2022/02/11 13:45:56;;;;;;;14.00;6.60;;;4.40;99.90;;;;;;5087393;28;20545;-76
2022/02/11 13:48:51;;;;;;;14.07;7.60;;;4.30;99.90;;;;;;5062386;28;20212;-75
2022/02/11 13:51:39;;;;;;;14.97;8.83;;;4.20;99.90;;;;;;5070175;28;20219;-76
2022/02/11 13:54:27;;;;;;;16.60;8.67;;;4.10;99.90;;;;;;5070149;28;20200;-76
2022/02/11 13:57:23;;;;;;;16.40;9.43;;;4.10;99.90;;;;;;5069608;28;20243;-76
2022/02/11 14:00:28;;;;;;;12.80;8.60;;;4.00;99.90;;;;;;5070127;28;20203;-76
2022/02/11 14:03:24;;;;;;;11.43;6.77;;;3.80;99.90;;;;;;5072645;28;20675;-76
2022/02/11 14:06:17;;;;;;;12.80;8.07;;;3.70;99.90;;;;;;5073497;28;20196;-75
2022/02/11 14:09:06;;;;;;;8.77;4.57;;;3.60;99.90;;;;;;5073399;28;20374;-75
2022/02/11 14:11:54;;;;;;;7.77;4.80;;;3.40;99.90;;;;;;5074072;28;20222;-75
2022/02/11 14:14:51;;;;;;;6.97;4.40;;;3.30;99.90;;;;;;5072546;28;20204;-75
2022/02/11 14:17:45;;;;;;;6.83;2.90;;;3.20;99.90;;;;;;5073187;28;20204;-75
2022/02/11 14:20:42;;;;;;;4.43;2.40;;;3.10;99.90;;;;;;5065417;28;20204;-75
2022/02/11 14:23:36;;;;;;;3.13;1.83;;;2.90;99.90;;;;;;5073056;28;20200;-75
2022/02/11 14:26:31;;;;;;;3.63;1.93;;;2.80;99.90;;;;;;5072663;28;20196;-74
2022/02/11 14:29:24;;;;;;;4.73;2.37;;;2.70;99.90;;;;;;5073240;28;20196;-76
2022/02/11 14:32:12;;;;;;;6.33;2.70;;;2.60;99.90;;;;;;5072931;28;20212;-75
2022/02/11 14:35:10;;;;;;;5.20;2.87;;;2.50;99.90;;;;;;5072563;28;20204;-76
2022/02/11 14:38:02;;;;;;;6.13;2.83;;;2.30;99.90;;;;;;5073848;28;20215;-76
2022/02/11 14:44:09;;;;;;;4.73;2.83;;;2.20;99.90;;;;;;5073143;28;20197;-74
2022/02/11 14:47:02;;;;;;;4.40;2.03;;;2.10;99.90;;;;;;5072630;28;20260;-75
2022/02/11 14:49:54;;;;;;;5.53;2.90;;;1.90;99.90;;;;;;5071900;28;20222;-75
2022/02/11 14:52:46;;;;;;;4.93;2.43;;;1.90;99.90;;;;;;5072156;28;20663;-75
2022/02/11 14:55:41;;;;;;;5.53;3.17;;;1.90;99.90;;;;;;5071453;28;20197;-75
2022/02/11 14:58:33;;;;;;;6.60;2.93;;;1.80;99.90;;;;;;5071677;28;20279;-75
2022/02/11 15:01:25;;;;;;;4.67;2.53;;;1.80;99.90;;;;;;5072613;28;20209;-75
2022/02/11 15:04:21;;;;;;;6.97;3.17;;;1.70;99.90;;;;;;5071912;28;20575;-75
2022/02/11 15:07:13;;;;;;;6.17;3.23;;;1.70;99.90;;;;;;5072493;28;20652;-75
2022/02/11 15:10:08;;;;;;;5.07;2.57;;;1.70;99.90;;;;;;5071694;28;20220;-75
2022/02/11 15:13:09;;;;;;;5.40;2.77;;;1.70;99.90;;;;;;5072448;28;20593;-75
2022/02/11 15:16:03;;;;;;;4.60;2.70;;;1.70;99.90;;;;;;5071775;28;20207;-76
2022/02/11 15:19:00;;;;;;;5.37;2.57;;;1.60;99.90;;;;;;5071683;28;20338;-75
2022/02/11 15:21:52;;;;;;;4.67;2.30;;;1.60;99.90;;;;;;5072300;28;20193;-75
2022/02/11 15:24:48;;;;;;;6.53;3.00;;;1.60;99.90;;;;;;5072265;28;20669;-75
2022/02/11 15:27:45;;;;;;;6.03;3.30;;;1.60;99.90;;;;;;5071461;28;20211;-75
2022/02/11 15:30:44;;;;;;;4.60;2.23;;;1.60;99.90;;;;;;5071373;28;20229;-75
2022/02/11 15:33:43;;;;;;;6.93;2.53;;;1.60;99.90;;;;;;5071908;28;20205;-75
2022/02/11 15:36:37;;;;;;;4.00;2.20;;;1.60;99.90;;;;;;5072189;28;20196;-75
2022/02/11 15:39:28;;;;;;;7.03;3.33;;;1.50;99.90;;;;;;5071239;28;20207;-75
2022/02/11 15:42:21;;;;;;;5.80;3.30;;;1.50;99.90;;;;;;5071127;28;20211;-75
2022/02/11 15:45:12;;;;;;;7.97;3.50;;;1.50;99.90;;;;;;5071110;28;20212;-75
2022/02/11 15:48:08;;;;;;;6.73;3.20;;;1.50;99.90;;;;;;5051219;28;20236;-76
2022/02/11 15:51:01;;;;;;;10.30;3.40;;;1.50;99.90;;;;;;5052775;28;20688;-76
2022/02/11 15:53:54;;;;;;;9.00;3.03;;;1.50;99.90;;;;;;5052207;28;20271;-76
2022/02/11 15:56:46;;;;;;;6.53;2.83;;;1.40;99.90;;;;;;5053023;28;20253;-75
2022/02/11 15:59:38;;;;;;;6.87;2.90;;;1.40;99.90;;;;;;5052309;28;20201;-75
2022/02/11 16:02:33;;;;;;;7.13;3.40;;;1.40;99.90;;;;;;5052128;28;20572;-76
2022/02/11 16:05:32;;;;;;;7.80;4.17;;;1.40;99.90;;;;;;5052009;28;20251;-75
2022/02/11 16:08:27;;;;;;;9.20;4.23;;;1.30;99.90;;;;;;5052464;28;20204;-76
2022/02/11 16:11:22;;;;;;;7.10;3.63;;;1.30;99.90;;;;;;5051878;28;20229;-76
2022/02/11 16:14:17;;;;;;;7.30;3.80;;;1.30;99.90;;;;;;5052210;28;20679;-76
2022/02/11 16:17:12;;;;;;;4.67;2.13;;;1.30;99.90;;;;;;5052499;28;20234;-75
2022/02/11 16:20:05;;;;;;;7.53;3.37;;;1.30;99.90;;;;;;5051769;28;20212;-76
2022/02/11 16:22:59;;;;;;;9.40;3.83;;;1.30;99.90;;;;;;5051471;28;20243;-76
2022/02/11 16:25:55;;;;;;;7.50;3.20;;;1.30;99.90;;;;;;5050952;28;20246;-76
2022/02/11 16:28:54;;;;;;;12.07;4.30;;;1.40;99.90;;;;;;5052083;28;20201;-76
2022/02/11 16:31:55;;;;;;;10.07;4.50;;;1.30;99.90;;;;;;5051355;28;20315;-75
2022/02/11 16:34:49;;;;;;;9.07;3.90;;;1.30;99.90;;;;;;5051428;28;20566;-75
2022/02/11 16:37:40;;;;;;;11.10;4.90;;;1.30;99.90;;;;;;5052269;28;20201;-76
2022/02/11 16:40:34;;;;;;;9.40;5.00;;;1.20;99.90;;;;;;5051323;28;20193;-76
2022/02/11 16:43:26;;;;;;;10.17;5.30;;;1.20;99.90;;;;;;5051962;28;20205;-75
2022/02/11 16:46:22;;;;;;;11.73;5.40;;;1.20;99.90;;;;;;5061677;28;20884;-76
2022/02/11 16:49:18;;;;;;;12.80;6.00;;;1.20;99.90;;;;;;5091303;28;20277;-76
2022/02/11 16:52:16;;;;;;;14.10;5.80;;;1.20;99.90;;;;;;5090392;28;20223;-76
2022/02/11 16:55:10;;;;;;;17.03;7.07;;;1.20;99.90;;;;;;5091006;28;20204;-76
2022/02/11 16:57:59;;;;;;;12.50;6.50;;;1.20;99.90;;;;;;5090804;28;20199;-76
2022/02/11 17:00:46;;;;;;;15.37;7.60;;;1.30;99.90;;;;;;5090600;28;20200;-76
2022/02/11 17:03:34;;;;;;;15.57;7.80;;;1.30;99.90;;;;;;5090569;28;20211;-75
2022/02/11 17:06:22;;;;;;;17.97;7.67;;;1.30;99.90;;;;;;5090317;28;20208;-76
2022/02/11 17:09:09;;;;;;;14.80;7.70;;;1.30;99.90;;;;;;5090272;28;20212;-76
2022/02/11 17:11:57;;;;;;;18.67;8.93;;;1.30;99.90;;;;;;5090472;28;20212;-75
2022/02/11 17:14:46;;;;;;;17.40;9.37;;;1.40;99.90;;;;;;5090625;28;20207;-76
2022/02/11 17:17:33;;;;;;;16.20;8.40;;;1.40;99.90;;;;;;5090502;28;20261;-76
2022/02/11 17:20:21;;;;;;;18.93;9.33;;;1.40;99.90;;;;;;5090422;28;20207;-76
2022/02/11 17:23:09;;;;;;;17.17;9.67;;;1.40;99.90;;;;;;5090507;28;20203;-76
2022/02/11 17:25:57;;;;;;;19.67;9.47;;;1.40;99.90;;;;;;5090329;28;20667;-76
2022/02/11 17:28:53;;;;;;;19.27;10.50;;;1.40;99.90;;;;;;5090283;28;20310;-76
2022/02/11 17:31:53;;;;;;;18.83;10.40;;;1.40;99.90;;;;;;5089645;28;20223;-76
2022/02/11 17:34:46;;;;;;;22.83;10.50;;;1.40;99.90;;;;;;5089983;28;20282;-76
2022/02/11 17:37:49;;;;;;;20.70;9.17;;;1.40;99.90;;;;;;5089164;28;20203;-75
2022/02/11 17:40:37;;;;;;;15.50;8.37;;;1.50;99.90;;;;;;5090011;28;20289;-76
2022/02/11 17:43:38;;;;;;;18.07;9.47;;;1.50;99.90;;;;;;5090170;28;20570;-76
2022/02/11 17:46:26;;;;;;;24.73;9.17;;;1.50;99.90;;;;;;5088918;28;20227;-76
2022/02/11 17:52:58;;;;;;;15.83;8.77;;;1.50;99.90;;;;;;5090016;28;20199;-75
2022/02/11 17:58:56;;;;;;;10.47;4.87;;;1.40;99.90;;;;;;5047550;28;20216;-76
2022/02/11 18:01:57;;;;;;;18.57;7.47;;;1.50;99.90;;;;;;5047190;28;20190;-76